首页
METAR-TAF:

METAR-TAF

机场 :

萨摩斯岛, 希腊

纬度: 37-42N, 经度: 026-55E, 海拔: 2米

当前天气观测

该预报发布于16分钟前的09:20 UTC
风速10节,风向,有时为20节阵风,在北转西北北转东北之间变化
温度 16°C
湿度 51%
气压 1019 hPa
能见度10公里或以上
1500米以下无云,无积雨云

METAR: LGSM 140920Z 36010G20KT 330V030 CAVOK 16/06 Q1019

时间: 11:36 (09:36 UTC)

预报

该预报发布于1小时和36分钟前的08:00 UTC
预报有效从14日的 09点(UTC)到 14日的 18点(UTC)
风速20节,风向北转东北
能见度10公里或以上
少量云层高于2000英尺

TAF: LGSM 140800Z 1409/1418 02020KT 9999 FEW020

超过4000个机场的气象观测和天气预报(METAR&TAF报告)。

可查询的气象台以黄色和红色小点在地图上表示。

将鼠标移到小点上方,可查看气象台名称。

然后点击查看天气观测和预报。

如需切换地图:点击带黑十字的绿色按钮放大地图;点击带横线的绿色按钮缩小地图;或者点击绿色箭头查看邻近地区的地图。


METAR-TAF: